createdAt,value
2023-04-20T05:06:53.789Z,5.54
2023-04-20T05:11:55.414Z,5.25
2023-04-20T05:17:01.182Z,5.48
2023-04-20T05:22:04.907Z,5.67
2023-04-20T05:27:06.409Z,5.60
2023-04-20T05:32:09.013Z,5.80
2023-04-20T05:37:13.361Z,5.51
2023-04-20T05:42:14.790Z,5.58
2023-04-20T05:47:16.289Z,5.73
2023-04-20T05:52:17.818Z,5.59
2023-04-20T05:57:19.260Z,5.32
2023-04-20T06:02:21.416Z,4.89
2023-04-20T06:45:47.008Z,4.75
2023-04-20T06:50:51.589Z,5.55
2023-04-20T06:55:56.789Z,5.50
2023-04-20T07:00:58.230Z,5.44
2023-04-20T07:05:59.704Z,6.07
2023-04-20T07:11:01.243Z,5.72
2023-04-20T07:16:03.045Z,5.59
2023-04-20T07:21:04.473Z,5.42
2023-04-20T07:26:06.135Z,5.45
2023-04-20T07:31:07.612Z,5.95
2023-04-20T07:36:09.523Z,5.93
2023-04-20T07:41:11.512Z,5.75
2023-04-20T07:46:20.553Z,5.72
2023-04-20T07:51:24.581Z,6.20
2023-04-20T07:56:26.467Z,5.67
2023-04-20T08:01:27.842Z,5.58
2023-04-20T08:06:29.281Z,6.14
2023-04-20T08:11:30.759Z,6.07
2023-04-20T08:16:32.210Z,5.76
2023-04-20T08:21:33.674Z,6.14
2023-04-20T08:26:36.064Z,5.95
2023-04-20T08:31:37.594Z,5.88
2023-04-20T08:36:45.356Z,6.06
2023-04-20T08:41:48.207Z,6.33
2023-04-20T08:46:50.842Z,6.58
2023-04-20T08:51:52.760Z,6.80
2023-04-20T08:56:54.147Z,6.59
2023-04-20T09:01:55.780Z,6.76
2023-04-20T09:06:57.419Z,7.05
2023-04-20T09:12:04.079Z,7.00
2023-04-20T09:17:05.628Z,7.05
2023-04-20T09:22:07.105Z,7.10
2023-04-20T09:27:18.969Z,7.23
2023-04-20T09:32:28.467Z,7.14
2023-04-20T09:37:30.559Z,7.11
2023-04-20T09:42:33.910Z,7.45
2023-04-20T09:47:37.116Z,7.13
2023-04-20T09:52:39.169Z,7.29
2023-04-20T09:57:41.053Z,7.34
2023-04-20T10:02:47.212Z,7.44
2023-04-20T10:07:59.324Z,7.73
2023-04-20T10:13:01.397Z,7.56
2023-04-20T10:18:25.623Z,7.03
2023-04-20T10:23:27.265Z,7.43
2023-04-20T10:28:42.824Z,7.24
2023-04-20T10:33:55.857Z,7.24
2023-04-20T10:38:58.032Z,7.21
2023-04-20T10:44:10.205Z,6.58
2023-04-20T10:49:11.924Z,6.58
2023-04-20T10:54:13.372Z,7.15
2023-04-20T10:59:17.102Z,7.39
2023-04-20T11:04:19.321Z,7.29
2023-04-20T11:09:28.293Z,6.98
2023-04-20T11:14:38.361Z,7.44
2023-04-20T11:19:40.681Z,7.27
2023-04-20T11:24:44.578Z,7.13
2023-04-20T11:29:55.446Z,7.27
2023-04-20T11:35:07.113Z,6.93
2023-04-20T11:40:10.330Z,6.73
2023-04-20T11:45:11.928Z,6.98
2023-04-20T11:50:14.386Z,7.06
2023-04-20T11:55:16.554Z,7.24
2023-04-20T12:00:18.357Z,7.15
2023-04-20T12:05:19.868Z,7.32
2023-04-20T12:10:21.632Z,7.61
2023-04-20T12:15:23.000Z,7.75
2023-04-20T12:20:24.475Z,7.75
2023-04-20T12:25:25.935Z,8.11
2023-04-20T12:30:27.556Z,8.24
2023-04-20T12:35:29.248Z,8.16
2023-04-20T12:40:30.669Z,8.11
2023-04-20T12:45:32.397Z,8.15
2023-04-20T12:50:33.820Z,8.46
2023-04-20T12:55:35.528Z,8.14
2023-04-20T13:00:37.013Z,8.45
2023-04-20T13:05:38.484Z,8.64
2023-04-20T13:10:42.616Z,8.79
2023-04-20T13:15:44.136Z,8.69
2023-04-20T13:20:45.649Z,8.88
2023-04-20T13:25:47.078Z,9.22
2023-04-20T13:30:48.529Z,8.77
2023-04-20T13:35:50.003Z,8.61
2023-04-20T13:40:51.492Z,8.67
2023-04-20T13:45:52.977Z,8.65
2023-04-20T13:50:54.744Z,8.76
2023-04-20T13:55:57.765Z,8.83
2023-04-20T14:00:59.229Z,8.98
2023-04-20T14:06:00.673Z,8.93
2023-04-20T14:11:02.310Z,8.90
2023-04-20T14:16:09.213Z,8.93
2023-04-20T14:21:10.751Z,9.31
2023-04-20T14:26:12.179Z,9.39
2023-04-20T14:31:13.685Z,9.65
2023-04-20T14:36:15.154Z,9.70
2023-04-20T14:41:16.998Z,9.69
2023-04-20T14:46:18.954Z,9.77
2023-04-20T14:51:20.942Z,9.61
2023-04-20T14:56:22.405Z,9.90
2023-04-20T15:01:23.866Z,9.87
2023-04-20T15:06:25.497Z,10.08
2023-04-20T15:11:26.834Z,10.27
2023-04-20T15:16:28.359Z,10.56
2023-04-20T15:21:29.719Z,10.80
2023-04-20T15:26:31.146Z,10.81
2023-04-20T15:31:32.686Z,11.01
2023-04-20T15:36:34.077Z,11.02
2023-04-20T15:41:35.502Z,10.88
2023-04-20T15:46:38.296Z,11.07
2023-04-20T15:51:39.805Z,11.22
2023-04-20T15:56:41.392Z,11.55
2023-04-20T16:01:42.874Z,11.63
2023-04-20T16:06:44.270Z,11.58
2023-04-20T16:11:47.075Z,11.59
2023-04-20T16:16:48.539Z,11.79
2023-04-20T16:21:49.886Z,11.88
2023-04-20T16:26:51.313Z,12.23
2023-04-20T16:31:52.822Z,12.05
2023-04-20T16:36:54.314Z,12.33
2023-04-20T16:41:57.152Z,12.21
2023-04-20T16:46:58.691Z,12.25
2023-04-20T16:52:00.156Z,12.60
2023-04-20T16:57:01.706Z,12.74
2023-04-20T17:02:03.249Z,12.43
2023-04-20T17:07:04.773Z,12.49
2023-04-20T17:12:07.736Z,12.33
2023-04-20T17:17:09.195Z,12.43
2023-04-20T17:22:10.662Z,12.58
2023-04-20T17:27:12.250Z,12.49
2023-04-20T17:32:14.063Z,12.56
2023-04-20T17:37:15.937Z,12.24
2023-04-20T17:42:17.684Z,12.21
2023-04-20T17:47:19.130Z,11.95
2023-04-20T17:52:22.178Z,12.04
2023-04-20T17:57:23.601Z,11.95
2023-04-20T18:02:25.249Z,12.01
2023-04-20T18:07:27.837Z,11.67
2023-04-20T18:12:29.272Z,11.83
2023-04-20T18:17:30.736Z,11.74
2023-04-20T18:22:32.922Z,11.42
2023-04-20T18:27:34.331Z,11.40
2023-04-20T18:32:37.051Z,11.30
2023-04-20T18:37:38.589Z,11.20
2023-04-20T18:42:40.078Z,11.22
2023-04-20T18:47:41.557Z,11.07
2023-04-20T18:52:43.013Z,11.11
2023-04-20T18:57:44.459Z,10.90
2023-04-20T19:02:46.146Z,10.80
2023-04-20T19:07:47.740Z,10.84
2023-04-20T19:12:49.091Z,10.82
2023-04-20T19:17:50.762Z,10.63
2023-04-20T19:22:52.858Z,10.61
2023-04-20T19:27:54.329Z,10.55
2023-04-20T19:32:55.733Z,10.33
2023-04-20T19:37:58.480Z,10.33
2023-04-20T19:43:00.058Z,10.28
2023-04-20T19:48:01.677Z,10.37
2023-04-20T19:53:03.157Z,10.31
2023-04-20T19:58:09.156Z,10.30
2023-04-20T20:03:12.227Z,10.21
2023-04-20T20:08:14.253Z,10.15
2023-04-20T20:13:15.945Z,10.02
2023-04-20T20:18:17.595Z,9.95
2023-04-20T20:23:19.026Z,9.92
2023-04-20T20:28:20.370Z,9.88
2023-04-20T20:33:21.824Z,9.88
2023-04-20T20:38:23.235Z,9.76
2023-04-20T20:43:25.190Z,9.67
2023-04-20T20:48:26.745Z,9.55
2023-04-20T20:53:28.104Z,9.48
2023-04-20T20:58:29.528Z,9.46
2023-04-20T21:03:31.426Z,9.41
2023-04-20T21:08:33.016Z,9.30
2023-04-20T21:13:34.515Z,9.07
2023-04-20T21:18:35.941Z,9.10
2023-04-20T21:23:37.385Z,9.09
2023-04-20T21:28:38.851Z,8.96
2023-04-20T21:33:40.364Z,8.91
2023-04-20T21:38:41.805Z,8.91
2023-04-20T21:43:43.590Z,8.85
2023-04-20T21:48:45.116Z,8.80
2023-04-20T21:53:46.637Z,8.74
2023-04-20T21:58:48.677Z,8.67
2023-04-20T22:03:50.456Z,8.59
2023-04-20T22:08:52.034Z,8.52
2023-04-20T22:13:53.728Z,8.46
2023-04-20T22:18:55.238Z,8.36
2023-04-20T22:23:56.594Z,8.36
2023-04-20T22:28:58.028Z,8.21
2023-04-20T22:33:59.476Z,8.17
2023-04-20T22:39:00.991Z,7.87
2023-04-20T22:44:02.451Z,7.96
2023-04-20T22:49:04.289Z,8.00
2023-04-20T22:54:06.285Z,7.94
2023-04-20T22:59:07.867Z,7.82
2023-04-20T23:04:09.376Z,7.16
2023-04-20T23:09:12.416Z,7.51
2023-04-20T23:14:14.230Z,7.63
2023-04-20T23:19:15.907Z,7.49
2023-04-20T23:24:17.353Z,7.43
2023-04-20T23:29:18.971Z,7.35
2023-04-20T23:34:20.659Z,7.36
2023-04-20T23:39:22.393Z,7.27
2023-04-20T23:44:23.819Z,7.20
2023-04-20T23:49:25.372Z,7.21
2023-04-20T23:54:26.918Z,6.85
2023-04-20T23:59:28.353Z,7.05
